Egnar, Colorado
Current Conditions -  °F | °C
As of 6:55 PM on Monday 24 Nov 2014 (Local Time) from KAIB Reporting Station
Clear Clear  
Wind Chill: 32°   Ceiling: Unl
Heat Index: 32°   Visibility: 10mi
Dew Point: 10°   Wind: 3mph
Humidity: 41%   Direction: 50°NE
Pressure: 30.35"   Gusts: NA
Location:  37.92°N, 108.94°W
Report Text: KAIB 250155Z AUTO 05003KT 10SM CLR 00/M12 A3035 RMK AO2
Loading
Personal Weather Stations






























Interactive Weather Map New forecast layout! Learn more

10-Day Weather Forecast

Advertisements
Track Severe Weather on mobile